sensor_id;sensor_type;location;lat;lon;timestamp;pressure;altitude;pressure_sealevel;temperature;humidity
83183;BME280;73077;49.898;16.450;2023-12-07T00:01:10;97032.25;;;20.06;42.99
83183;BME280;73077;49.898;16.450;2023-12-07T00:03:36;97034.19;;;20.12;42.61
83183;BME280;73077;49.898;16.450;2023-12-07T00:06:01;97032.75;;;20.01;42.73
83183;BME280;73077;49.898;16.450;2023-12-07T00:08:27;97032.75;;;20.01;42.81
83183;BME280;73077;49.898;16.450;2023-12-07T00:10:53;97030.66;;;19.96;42.82
83183;BME280;73077;49.898;16.450;2023-12-07T00:13:20;97042.13;;;19.95;42.57
83183;BME280;73077;49.898;16.450;2023-12-07T00:15:45;97042.97;;;19.96;42.85
83183;BME280;73077;49.898;16.450;2023-12-07T00:18:11;97045.25;;;19.99;42.67
83183;BME280;73077;49.898;16.450;2023-12-07T00:20:37;97052.00;;;19.93;42.89
83183;BME280;73077;49.898;16.450;2023-12-07T00:23:04;97047.09;;;19.90;42.68
83183;BME280;73077;49.898;16.450;2023-12-07T00:25:31;97048.91;;;19.90;42.95
83183;BME280;73077;49.898;16.450;2023-12-07T00:27:58;97047.91;;;19.91;42.81
83183;BME280;73077;49.898;16.450;2023-12-07T00:30:23;97046.06;;;19.99;42.60
83183;BME280;73077;49.898;16.450;2023-12-07T00:32:49;97050.88;;;19.88;42.66
83183;BME280;73077;49.898;16.450;2023-12-07T00:35:17;97056.97;;;19.88;42.78
83183;BME280;73077;49.898;16.450;2023-12-07T00:37:47;97051.22;;;19.85;42.68
83183;BME280;73077;49.898;16.450;2023-12-07T00:40:14;97053.22;;;19.83;42.77
83183;BME280;73077;49.898;16.450;2023-12-07T00:42:40;97057.28;;;19.85;42.63
83183;BME280;73077;49.898;16.450;2023-12-07T00:45:06;97057.94;;;19.87;42.97
83183;BME280;73077;49.898;16.450;2023-12-07T00:47:31;97058.13;;;19.86;42.78
83183;BME280;73077;49.898;16.450;2023-12-07T00:49:57;97057.97;;;19.79;42.88
83183;BME280;73077;49.898;16.450;2023-12-07T00:52:22;97059.63;;;19.80;42.72
83183;BME280;73077;49.898;16.450;2023-12-07T00:54:49;97060.59;;;19.79;42.82
83183;BME280;73077;49.898;16.450;2023-12-07T00:57:15;97057.34;;;19.77;42.88
83183;BME280;73077;49.898;16.450;2023-12-07T00:59:42;97050.59;;;19.83;42.61
83183;BME280;73077;49.898;16.450;2023-12-07T01:02:08;97056.34;;;19.78;42.51
83183;BME280;73077;49.898;16.450;2023-12-07T01:04:33;97058.31;;;19.76;42.87
83183;BME280;73077;49.898;16.450;2023-12-07T01:06:59;97062.59;;;19.77;42.71
83183;BME280;73077;49.898;16.450;2023-12-07T01:09:26;97056.88;;;19.74;42.72
83183;BME280;73077;49.898;16.450;2023-12-07T01:11:52;97058.84;;;19.72;42.82
83183;BME280;73077;49.898;16.450;2023-12-07T01:17:03;97057.03;;;19.72;42.87
83183;BME280;73077;49.898;16.450;2023-12-07T01:19:29;97066.88;;;19.70;42.76
83183;BME280;73077;49.898;16.450;2023-12-07T01:21:54;97065.94;;;19.63;43.04
83183;BME280;73077;49.898;16.450;2023-12-07T01:24:20;97068.19;;;19.66;42.78
83183;BME280;73077;49.898;16.450;2023-12-07T01:26:46;97070.66;;;19.68;42.89
83183;BME280;73077;49.898;16.450;2023-12-07T01:29:11;97073.16;;;19.61;42.86
83183;BME280;73077;49.898;16.450;2023-12-07T01:31:40;97082.66;;;19.62;42.92
83183;BME280;73077;49.898;16.450;2023-12-07T01:34:05;97074.59;;;19.64;42.94
83183;BME280;73077;49.898;16.450;2023-12-07T01:36:32;97071.19;;;19.63;42.78
83183;BME280;73077;49.898;16.450;2023-12-07T01:38:58;97073.81;;;19.63;42.88
83183;BME280;73077;49.898;16.450;2023-12-07T01:41:24;97072.81;;;19.64;42.84
83183;BME280;73077;49.898;16.450;2023-12-07T01:43:49;97079.41;;;19.60;42.63
83183;BME280;73077;49.898;16.450;2023-12-07T01:46:16;97083.00;;;19.59;43.03
83183;BME280;73077;49.898;16.450;2023-12-07T01:48:42;97088.75;;;19.55;43.02
83183;BME280;73077;49.898;16.450;2023-12-07T01:51:09;97086.47;;;19.52;42.96
83183;BME280;73077;49.898;16.450;2023-12-07T01:53:39;97087.13;;;19.54;42.90
83183;BME280;73077;49.898;16.450;2023-12-07T01:56:07;97085.66;;;19.51;43.04
83183;BME280;73077;49.898;16.450;2023-12-07T01:58:34;97081.38;;;19.50;42.89
83183;BME280;73077;49.898;16.450;2023-12-07T02:01:02;97085.81;;;19.50;42.85
83183;BME280;73077;49.898;16.450;2023-12-07T02:03:31;97088.75;;;19.47;42.96
83183;BME280;73077;49.898;16.450;2023-12-07T02:05:58;97085.69;;;19.43;42.88
83183;BME280;73077;49.898;16.450;2023-12-07T02:08:24;97092.09;;;19.40;42.95
83183;BME280;73077;49.898;16.450;2023-12-07T02:10:50;97088.81;;;19.38;43.00
83183;BME280;73077;49.898;16.450;2023-12-07T02:13:20;97094.88;;;19.39;43.18
83183;BME280;73077;49.898;16.450;2023-12-07T02:15:46;97090.25;;;19.33;43.16
83183;BME280;73077;49.898;16.450;2023-12-07T02:18:38;97095.50;;;19.33;43.22
83183;BME280;73077;49.898;16.450;2023-12-07T02:21:22;97099.13;;;19.32;43.15
83183;BME280;73077;49.898;16.450;2023-12-07T02:23:51;97096.97;;;19.35;42.98
83183;BME280;73077;49.898;16.450;2023-12-07T02:26:20;97092.06;;;19.32;43.20
83183;BME280;73077;49.898;16.450;2023-12-07T02:28:47;97097.31;;;19.32;43.00
83183;BME280;73077;49.898;16.450;2023-12-07T02:31:13;97099.47;;;19.29;43.09
83183;BME280;73077;49.898;16.450;2023-12-07T02:33:39;97094.56;;;19.26;43.17
83183;BME280;73077;49.898;16.450;2023-12-07T02:36:05;97102.09;;;19.21;43.33
83183;BME280;73077;49.898;16.450;2023-12-07T02:38:32;97103.09;;;19.20;43.08
83183;BME280;73077;49.898;16.450;2023-12-07T02:41:00;97099.16;;;19.16;43.22
83183;BME280;73077;49.898;16.450;2023-12-07T02:43:27;97105.72;;;19.20;43.16
83183;BME280;73077;49.898;16.450;2023-12-07T02:45:53;97108.66;;;19.17;43.14
83183;BME280;73077;49.898;16.450;2023-12-07T02:48:20;97104.38;;;19.16;43.43
83183;BME280;73077;49.898;16.450;2023-12-07T02:50:46;97106.88;;;19.17;43.12
83183;BME280;73077;49.898;16.450;2023-12-07T02:53:12;97113.56;;;19.20;43.25
83183;BME280;73077;49.898;16.450;2023-12-07T02:55:40;97111.75;;;19.12;43.43
83183;BME280;73077;49.898;16.450;2023-12-07T02:58:06;97116.84;;;19.14;43.22
83183;BME280;73077;49.898;16.450;2023-12-07T03:00:34;97114.06;;;19.07;43.26
83183;BME280;73077;49.898;16.450;2023-12-07T03:03:00;97116.22;;;19.12;43.16
83183;BME280;73077;49.898;16.450;2023-12-07T03:05:27;97115.72;;;19.08;43.36
83183;BME280;73077;49.898;16.450;2023-12-07T03:07:55;97129.78;;;19.07;43.27
83183;BME280;73077;49.898;16.450;2023-12-07T03:10:21;97123.91;;;19.05;43.32
83183;BME280;73077;49.898;16.450;2023-12-07T03:12:47;97131.13;;;19.03;43.51
83183;BME280;73077;49.898;16.450;2023-12-07T03:15:13;97126.53;;;18.97;43.58
83183;BME280;73077;49.898;16.450;2023-12-07T03:17:39;97127.19;;;18.91;43.58
83183;BME280;73077;49.898;16.450;2023-12-07T03:20:05;97129.63;;;19.01;43.17
83183;BME280;73077;49.898;16.450;2023-12-07T03:22:31;97125.22;;;19.01;43.24
83183;BME280;73077;49.898;16.450;2023-12-07T03:24:56;97130.97;;;18.89;43.55
83183;BME280;73077;49.898;16.450;2023-12-07T03:27:22;97135.53;;;18.86;43.53
83183;BME280;73077;49.898;16.450;2023-12-07T03:29:48;97139.16;;;18.94;43.43
83183;BME280;73077;49.898;16.450;2023-12-07T03:32:13;97137.03;;;18.89;43.58
83183;BME280;73077;49.898;16.450;2023-12-07T03:34:39;97137.03;;;18.89;43.44
83183;BME280;73077;49.898;16.450;2023-12-07T03:37:06;97142.09;;;18.82;43.63
83183;BME280;73077;49.898;16.450;2023-12-07T03:39:32;97144.53;;;18.84;43.53
83183;BME280;73077;49.898;16.450;2023-12-07T03:41:58;97145.69;;;18.81;43.57
83183;BME280;73077;49.898;16.450;2023-12-07T03:44:24;97150.09;;;18.81;43.52
83183;BME280;73077;49.898;16.450;2023-12-07T03:46:52;97151.59;;;18.75;43.66
83183;BME280;73077;49.898;16.450;2023-12-07T03:49:18;97157.31;;;18.79;43.69
83183;BME280;73077;49.898;16.450;2023-12-07T03:51:44;97154.88;;;18.77;43.57
83183;BME280;73077;49.898;16.450;2023-12-07T03:54:09;97157.81;;;18.74;43.87
83183;BME280;73077;49.898;16.450;2023-12-07T03:56:35;97160.44;;;18.74;43.54
83183;BME280;73077;49.898;16.450;2023-12-07T03:59:02;97169.13;;;18.83;43.54
83183;BME280;73077;49.898;16.450;2023-12-07T04:01:29;97159.94;;;18.71;43.86
83183;BME280;73077;49.898;16.450;2023-12-07T04:03:56;97166.50;;;18.91;43.59
83183;BME280;73077;49.898;16.450;2023-12-07T04:06:23;97163.53;;;19.18;42.79
83183;BME280;73077;49.898;16.450;2023-12-07T04:08:49;97170.88;;;19.47;42.40
83183;BME280;73077;49.898;16.450;2023-12-07T04:11:15;97170.25;;;19.92;41.46
83183;BME280;73077;49.898;16.450;2023-12-07T04:13:42;97178.28;;;20.37;40.58
83183;BME280;73077;49.898;16.450;2023-12-07T04:16:09;97179.41;;;20.88;39.65
83183;BME280;73077;49.898;16.450;2023-12-07T04:18:36;97188.16;;;21.41;38.51
83183;BME280;73077;49.898;16.450;2023-12-07T04:21:03;97190.78;;;21.93;37.59
83183;BME280;73077;49.898;16.450;2023-12-07T04:23:29;97194.09;;;22.31;37.15
83183;BME280;73077;49.898;16.450;2023-12-07T04:25:55;97194.41;;;22.57;36.61
83183;BME280;73077;49.898;16.450;2023-12-07T04:28:21;97193.56;;;22.71;36.48
83183;BME280;73077;49.898;16.450;2023-12-07T04:30:46;97197.31;;;22.83;36.45
83183;BME280;73077;49.898;16.450;2023-12-07T04:33:15;97195.81;;;22.95;36.38
83183;BME280;73077;49.898;16.450;2023-12-07T04:39:17;97204.06;;;23.34;36.06
83183;BME280;73077;49.898;16.450;2023-12-07T04:41:46;97215.38;;;23.50;35.92
83183;BME280;73077;49.898;16.450;2023-12-07T04:44:18;97210.38;;;23.61;35.83
83183;BME280;73077;49.898;16.450;2023-12-07T04:46:45;97223.19;;;23.64;35.73
83183;BME280;73077;49.898;16.450;2023-12-07T04:49:11;97227.03;;;23.62;35.94
83183;BME280;73077;49.898;16.450;2023-12-07T04:51:38;97225.41;;;23.61;36.00
83183;BME280;73077;49.898;16.450;2023-12-07T04:54:05;97225.16;;;23.56;36.10
83183;BME280;73077;49.898;16.450;2023-12-07T04:56:32;97230.06;;;23.59;36.32
83183;BME280;73077;49.898;16.450;2023-12-07T04:58:59;97229.88;;;23.88;35.84
83183;BME280;73077;49.898;16.450;2023-12-07T05:01:26;97229.84;;;24.16;35.38
83183;BME280;73077;49.898;16.450;2023-12-07T05:03:53;97234.00;;;24.31;35.28
83183;BME280;73077;49.898;16.450;2023-12-07T05:06:20;97235.22;;;24.35;35.20
83183;BME280;73077;49.898;16.450;2023-12-07T05:09:10;97234.59;;;24.33;35.38
83183;BME280;73077;49.898;16.450;2023-12-07T05:11:48;97233.03;;;24.45;35.32
83183;BME280;73077;49.898;16.450;2023-12-07T05:14:43;97242.00;;;24.58;35.05
83183;BME280;73077;49.898;16.450;2023-12-07T05:17:13;97238.16;;;24.60;35.02
83183;BME280;73077;49.898;16.450;2023-12-07T05:19:40;97244.66;;;24.58;35.08
83183;BME280;73077;49.898;16.450;2023-12-07T05:22:06;97247.06;;;24.53;35.21
83183;BME280;73077;49.898;16.450;2023-12-07T05:24:32;97245.03;;;24.55;35.20
83183;BME280;73077;49.898;16.450;2023-12-07T05:27:00;97247.94;;;24.60;35.26
83183;BME280;73077;49.898;16.450;2023-12-07T05:29:25;97248.53;;;24.62;35.45
83183;BME280;73077;49.898;16.450;2023-12-07T05:31:53;97250.53;;;24.53;35.33
83183;BME280;73077;49.898;16.450;2023-12-07T05:34:20;97254.78;;;24.47;35.41
83183;BME280;73077;49.898;16.450;2023-12-07T05:36:45;97250.69;;;24.38;35.58
83183;BME280;73077;49.898;16.450;2023-12-07T05:39:13;97254.72;;;24.34;35.55
83183;BME280;73077;49.898;16.450;2023-12-07T05:41:39;97255.13;;;24.31;35.64
83183;BME280;73077;49.898;16.450;2023-12-07T05:44:05;97261.81;;;24.27;35.74
83183;BME280;73077;49.898;16.450;2023-12-07T05:46:32;97256.31;;;24.22;35.96
83183;BME280;73077;49.898;16.450;2023-12-07T05:48:58;97266.81;;;24.16;35.78
83183;BME280;73077;49.898;16.450;2023-12-07T05:51:24;97260.72;;;24.15;35.87
83183;BME280;73077;49.898;16.450;2023-12-07T05:53:51;97255.22;;;24.10;36.05
83183;BME280;73077;49.898;16.450;2023-12-07T05:56:19;97263.06;;;24.04;36.03
83183;BME280;73077;49.898;16.450;2023-12-07T05:58:45;97256.72;;;23.98;36.13
83183;BME280;73077;49.898;16.450;2023-12-07T06:01:11;97264.56;;;23.85;36.87
83183;BME280;73077;49.898;16.450;2023-12-07T06:03:37;97263.69;;;23.78;36.99
83183;BME280;73077;49.898;16.450;2023-12-07T06:06:03;97263.47;;;23.73;36.74
83183;BME280;73077;49.898;16.450;2023-12-07T06:08:31;97264.47;;;23.72;36.79
83183;BME280;73077;49.898;16.450;2023-12-07T06:10:58;97266.88;;;23.67;36.78
83183;BME280;73077;49.898;16.450;2023-12-07T06:13:24;97267.03;;;23.59;36.86
83183;BME280;73077;49.898;16.450;2023-12-07T06:15:49;97270.25;;;23.54;36.94
83183;BME280;73077;49.898;16.450;2023-12-07T06:18:15;97272.00;;;23.47;37.06
83183;BME280;73077;49.898;16.450;2023-12-07T06:20:41;97273.94;;;23.39;37.06
83183;BME280;73077;49.898;16.450;2023-12-07T06:23:07;97273.69;;;23.33;37.12
83183;BME280;73077;49.898;16.450;2023-12-07T06:25:39;97284.75;;;23.22;37.35
83183;BME280;73077;49.898;16.450;2023-12-07T06:28:04;97283.84;;;23.15;37.48
83183;BME280;73077;49.898;16.450;2023-12-07T06:30:30;97295.72;;;23.05;37.54
83183;BME280;73077;49.898;16.450;2023-12-07T06:32:56;97299.72;;;23.01;37.44
83183;BME280;73077;49.898;16.450;2023-12-07T06:35:23;97303.47;;;22.92;37.74
83183;BME280;73077;49.898;16.450;2023-12-07T06:37:48;97300.13;;;22.83;37.74
83183;BME280;73077;49.898;16.450;2023-12-07T06:40:16;97303.25;;;22.72;38.11
83183;BME280;73077;49.898;16.450;2023-12-07T06:42:42;97307.63;;;22.65;38.22
83183;BME280;73077;49.898;16.450;2023-12-07T06:45:09;97312.16;;;22.56;38.20
83183;BME280;73077;49.898;16.450;2023-12-07T06:47:38;97312.69;;;22.52;38.36
83183;BME280;73077;49.898;16.450;2023-12-07T06:50:05;97307.16;;;22.47;38.24
83183;BME280;73077;49.898;16.450;2023-12-07T06:52:33;97310.34;;;22.42;38.54
83183;BME280;73077;49.898;16.450;2023-12-07T06:54:59;97314.91;;;22.34;38.55
83183;BME280;73077;49.898;16.450;2023-12-07T06:57:25;97320.53;;;22.31;38.52
83183;BME280;73077;49.898;16.450;2023-12-07T06:59:52;97320.06;;;22.27;38.65
83183;BME280;73077;49.898;16.450;2023-12-07T07:02:17;97324.59;;;22.18;38.61
83183;BME280;73077;49.898;16.450;2023-12-07T07:04:46;97325.97;;;22.14;38.58
83183;BME280;73077;49.898;16.450;2023-12-07T07:07:14;97322.06;;;22.10;38.73
83183;BME280;73077;49.898;16.450;2023-12-07T07:09:40;97322.41;;;22.07;38.51
83183;BME280;73077;49.898;16.450;2023-12-07T07:12:07;97331.03;;;22.01;38.89
83183;BME280;73077;49.898;16.450;2023-12-07T07:14:33;97331.41;;;21.98;38.63
83183;BME280;73077;49.898;16.450;2023-12-07T07:17:00;97333.91;;;21.92;38.97
83183;BME280;73077;49.898;16.450;2023-12-07T07:19:25;97338.75;;;21.88;39.07
83183;BME280;73077;49.898;16.450;2023-12-07T07:21:51;97338.59;;;21.82;38.91
83183;BME280;73077;49.898;16.450;2023-12-07T07:24:17;97342.22;;;21.81;39.09
83183;BME280;73077;49.898;16.450;2023-12-07T07:26:42;97352.31;;;21.77;39.02
83183;BME280;73077;49.898;16.450;2023-12-07T07:29:08;97344.28;;;21.71;39.24
83183;BME280;73077;49.898;16.450;2023-12-07T07:31:34;97356.16;;;21.66;39.17
83183;BME280;73077;49.898;16.450;2023-12-07T07:34:00;97354.69;;;21.64;39.17
83183;BME280;73077;49.898;16.450;2023-12-07T07:36:26;97355.59;;;21.56;39.35
83183;BME280;73077;49.898;16.450;2023-12-07T07:38:52;97358.56;;;21.53;39.18
83183;BME280;73077;49.898;16.450;2023-12-07T07:41:18;97357.94;;;21.51;39.16
83183;BME280;73077;49.898;16.450;2023-12-07T07:43:43;97362.72;;;21.48;39.29
83183;BME280;73077;49.898;16.450;2023-12-07T07:46:10;97370.69;;;21.40;39.51
83183;BME280;73077;49.898;16.450;2023-12-07T07:48:36;97366.69;;;21.44;39.29
83183;BME280;73077;49.898;16.450;2023-12-07T07:51:03;97361.97;;;21.39;39.26
83183;BME280;73077;49.898;16.450;2023-12-07T07:53:28;97365.28;;;21.33;39.50
83183;BME280;73077;49.898;16.450;2023-12-07T07:55:55;97374.97;;;21.33;39.38
83183;BME280;73077;49.898;16.450;2023-12-07T07:58:20;97374.34;;;21.31;39.35
83183;BME280;73077;49.898;16.450;2023-12-07T08:00:47;97372.69;;;21.30;39.39
83183;BME280;73077;49.898;16.450;2023-12-07T08:03:13;97377.47;;;21.26;39.63
83183;BME280;73077;49.898;16.450;2023-12-07T08:05:39;97382.28;;;21.23;39.50
83183;BME280;73077;49.898;16.450;2023-12-07T08:08:04;97380.00;;;21.20;39.47
83183;BME280;73077;49.898;16.450;2023-12-07T08:10:30;97379.22;;;21.11;39.64
83183;BME280;73077;49.898;16.450;2023-12-07T08:12:57;97384.31;;;21.04;39.92
83183;BME280;73077;49.898;16.450;2023-12-07T08:15:23;97378.41;;;21.02;39.76
83183;BME280;73077;49.898;16.450;2023-12-07T08:17:49;97379.06;;;21.04;39.80
83183;BME280;73077;49.898;16.450;2023-12-07T08:20:16;97383.00;;;21.00;39.90
83183;BME280;73077;49.898;16.450;2023-12-07T08:22:42;97388.97;;;20.94;40.06
83183;BME280;73077;49.898;16.450;2023-12-07T08:25:08;97388.00;;;20.87;39.97
83183;BME280;73077;49.898;16.450;2023-12-07T08:27:36;97389.19;;;20.85;39.95
83183;BME280;73077;49.898;16.450;2023-12-07T08:30:04;97384.94;;;20.76;40.10
83183;BME280;73077;49.898;16.450;2023-12-07T08:32:30;97383.66;;;20.72;40.25
83183;BME280;73077;49.898;16.450;2023-12-07T08:34:56;97387.41;;;20.69;40.42
83183;BME280;73077;49.898;16.450;2023-12-07T08:37:23;97389.91;;;20.71;40.35
83183;BME280;73077;49.898;16.450;2023-12-07T08:39:50;97388.59;;;20.67;40.27
83183;BME280;73077;49.898;16.450;2023-12-07T08:42:16;97389.09;;;20.62;40.34
83183;BME280;73077;49.898;16.450;2023-12-07T08:44:43;97400.59;;;20.61;40.25
83183;BME280;73077;49.898;16.450;2023-12-07T08:47:10;97396.69;;;20.57;40.45
83183;BME280;73077;49.898;16.450;2023-12-07T08:49:36;97400.78;;;20.60;40.58
83183;BME280;73077;49.898;16.450;2023-12-07T08:52:02;97398.69;;;20.39;40.55
83183;BME280;73077;49.898;16.450;2023-12-07T08:54:28;97395.38;;;20.45;40.78
83183;BME280;73077;49.898;16.450;2023-12-07T08:56:55;97398.00;;;20.45;40.55
83183;BME280;73077;49.898;16.450;2023-12-07T08:59:22;97401.47;;;20.45;40.50
83183;BME280;73077;49.898;16.450;2023-12-07T09:01:51;97399.00;;;20.44;40.76
83183;BME280;73077;49.898;16.450;2023-12-07T09:04:18;97403.94;;;20.39;40.68
83183;BME280;73077;49.898;16.450;2023-12-07T09:06:44;97396.56;;;20.42;40.61
83183;BME280;73077;49.898;16.450;2023-12-07T09:09:10;97400.66;;;20.37;40.46
83183;BME280;73077;49.898;16.450;2023-12-07T09:11:39;97400.66;;;20.37;40.55
83183;BME280;73077;49.898;16.450;2023-12-07T09:14:07;97398.19;;;20.35;40.72
83183;BME280;73077;49.898;16.450;2023-12-07T09:16:33;97394.44;;;20.30;40.68
83183;BME280;73077;49.898;16.450;2023-12-07T09:19:00;97400.34;;;20.32;40.67
83183;BME280;73077;49.898;16.450;2023-12-07T09:21:27;97396.09;;;20.31;40.55
83183;BME280;73077;49.898;16.450;2023-12-07T09:23:55;97395.06;;;20.24;40.64
83183;BME280;73077;49.898;16.450;2023-12-07T09:26:20;97394.44;;;20.30;40.61
83183;BME280;73077;49.898;16.450;2023-12-07T09:28:46;97392.47;;;20.32;40.50
83183;BME280;73077;49.898;16.450;2023-12-07T09:31:13;97389.34;;;20.20;40.62
83183;BME280;73077;49.898;16.450;2023-12-07T09:33:42;97391.78;;;20.22;40.70
83183;BME280;73077;49.898;16.450;2023-12-07T09:36:08;97393.44;;;20.23;40.65
83183;BME280;73077;49.898;16.450;2023-12-07T09:38:38;97397.38;;;20.19;40.61
83183;BME280;73077;49.898;16.450;2023-12-07T09:41:05;97392.13;;;20.19;40.71
83183;BME280;73077;49.898;16.450;2023-12-07T09:43:32;97392.13;;;20.19;40.64
83183;BME280;73077;49.898;16.450;2023-12-07T09:45:58;97398.72;;;20.15;40.53
83183;BME280;73077;49.898;16.450;2023-12-07T09:48:27;97400.34;;;20.16;40.65
83183;BME280;73077;49.898;16.450;2023-12-07T09:50:55;97400.66;;;20.13;40.77
83183;BME280;73077;49.898;16.450;2023-12-07T09:53:22;97402.97;;;20.08;40.80
83183;BME280;73077;49.898;16.450;2023-12-07T09:55:49;97393.78;;;20.12;40.64
83183;BME280;73077;49.898;16.450;2023-12-07T09:58:17;97390.50;;;20.10;40.87
83183;BME280;73077;49.898;16.450;2023-12-07T10:00:47;97391.00;;;20.05;40.78
83183;BME280;73077;49.898;16.450;2023-12-07T10:03:22;97396.56;;;20.10;40.64
83183;BME280;73077;49.898;16.450;2023-12-07T10:05:56;97388.69;;;20.10;40.66
83183;BME280;73077;49.898;16.450;2023-12-07T10:08:30;97392.66;;;20.06;40.70
83183;BME280;73077;49.898;16.450;2023-12-07T10:11:09;97383.13;;;20.05;40.92
83183;BME280;73077;49.898;16.450;2023-12-07T10:13:37;97386.22;;;20.00;40.80
83183;BME280;73077;49.898;16.450;2023-12-07T10:16:12;97377.72;;;19.98;40.78
83183;BME280;73077;49.898;16.450;2023-12-07T10:18:41;97370.66;;;19.99;40.90
83183;BME280;73077;49.898;16.450;2023-12-07T10:21:09;97365.56;;;20.06;40.67
83183;BME280;73077;49.898;16.450;2023-12-07T10:23:40;97369.84;;;20.15;40.70
83183;BME280;73077;49.898;16.450;2023-12-07T10:26:10;97375.06;;;20.23;40.57
83183;BME280;73077;49.898;16.450;2023-12-07T10:28:40;97375.41;;;20.28;40.21
83183;BME280;73077;49.898;16.450;2023-12-07T10:31:09;97374.41;;;20.37;40.10
83183;BME280;73077;49.898;16.450;2023-12-07T10:33:35;97375.03;;;20.47;39.78
83183;BME280;73077;49.898;16.450;2023-12-07T10:36:05;97373.19;;;20.55;39.70
83183;BME280;73077;49.898;16.450;2023-12-07T10:38:31;97372.31;;;20.71;39.45
83183;BME280;73077;49.898;16.450;2023-12-07T10:41:04;97372.94;;;20.81;39.18
83183;BME280;73077;49.898;16.450;2023-12-07T10:43:36;97372.25;;;20.87;39.17
83183;BME280;73077;49.898;16.450;2023-12-07T10:46:05;97374.53;;;20.90;39.03
83183;BME280;73077;49.898;16.450;2023-12-07T10:48:32;97369.63;;;20.87;38.98
83183;BME280;73077;49.898;16.450;2023-12-07T10:51:00;97376.03;;;20.85;39.21
83183;BME280;73077;49.898;16.450;2023-12-07T10:53:41;97379.81;;;20.82;39.31
83183;BME280;73077;49.898;16.450;2023-12-07T10:56:20;97373.09;;;20.80;39.37
83183;BME280;73077;49.898;16.450;2023-12-07T10:58:52;97372.44;;;20.78;39.31
83183;BME280;73077;49.898;16.450;2023-12-07T11:01:19;97378.69;;;20.77;39.53
83183;BME280;73077;49.898;16.450;2023-12-07T11:03:49;97376.56;;;20.72;39.50
83183;BME280;73077;49.898;16.450;2023-12-07T11:06:21;97379.53;;;20.69;39.39
83183;BME280;73077;49.898;16.450;2023-12-07T11:08:59;97375.44;;;20.67;39.74
83183;BME280;73077;49.898;16.450;2023-12-07T11:11:29;97374.28;;;20.69;39.50
83183;BME280;73077;49.898;16.450;2023-12-07T11:14:02;97372.03;;;20.66;39.56
83183;BME280;73077;49.898;16.450;2023-12-07T11:16:36;97371.69;;;20.61;39.56
83183;BME280;73077;49.898;16.450;2023-12-07T11:19:03;97372.84;;;20.59;39.72
83183;BME280;73077;49.898;16.450;2023-12-07T11:21:31;97364.47;;;20.55;39.87
83183;BME280;73077;49.898;16.450;2023-12-07T11:24:00;97367.78;;;20.57;39.78
83183;BME280;73077;49.898;16.450;2023-12-07T11:26:29;97366.13;;;20.56;39.76
83183;BME280;73077;49.898;16.450;2023-12-07T11:28:55;97368.28;;;20.52;39.73
83183;BME280;73077;49.898;16.450;2023-12-07T11:31:22;97364.47;;;20.55;39.60
83183;BME280;73077;49.898;16.450;2023-12-07T11:33:48;97358.28;;;20.48;39.76
83183;BME280;73077;49.898;16.450;2023-12-07T11:36:14;97360.28;;;20.46;39.96
83183;BME280;73077;49.898;16.450;2023-12-07T11:41:37;97358.78;;;20.43;39.89
83183;BME280;73077;49.898;16.450;2023-12-07T11:44:05;97352.06;;;20.41;40.02
83183;BME280;73077;49.898;16.450;2023-12-07T11:46:32;97358.47;;;20.38;39.79
83183;BME280;73077;49.898;16.450;2023-12-07T11:49:00;97352.25;;;20.39;39.86
83183;BME280;73077;49.898;16.450;2023-12-07T11:51:29;97350.59;;;20.38;39.99
83183;BME280;73077;49.898;16.450;2023-12-07T11:53:56;97357.66;;;20.38;39.87
83183;BME280;73077;49.898;16.450;2023-12-07T11:56:22;97360.59;;;20.35;39.90
83183;BME280;73077;49.898;16.450;2023-12-07T11:58:48;97356.19;;;20.35;40.01
83183;BME280;73077;49.898;16.450;2023-12-07T12:01:15;97359.97;;;20.33;39.88
83183;BME280;73077;49.898;16.450;2023-12-07T12:03:42;97362.59;;;20.33;39.88
83183;BME280;73077;49.898;16.450;2023-12-07T12:06:09;97360.44;;;20.36;39.90
83183;BME280;73077;49.898;16.450;2023-12-07T12:08:38;97365.19;;;20.41;39.70
83183;BME280;73077;49.898;16.450;2023-12-07T12:11:04;97370.25;;;20.50;39.65
83183;BME280;73077;49.898;16.450;2023-12-07T12:13:33;97366.97;;;20.57;39.47
83183;BME280;73077;49.898;16.450;2023-12-07T12:16:00;97357.88;;;20.67;39.46
83183;BME280;73077;49.898;16.450;2023-12-07T12:18:26;97368.00;;;20.78;39.07
83183;BME280;73077;49.898;16.450;2023-12-07T12:20:54;97362.84;;;20.93;38.91
83183;BME280;73077;49.898;16.450;2023-12-07T12:23:21;97361.81;;;21.02;38.91
83183;BME280;73077;49.898;16.450;2023-12-07T12:25:47;97361.28;;;21.06;38.72
83183;BME280;73077;49.898;16.450;2023-12-07T12:28:18;97369.19;;;21.06;38.79
83183;BME280;73077;49.898;16.450;2023-12-07T12:30:47;97370.00;;;21.07;38.79
83183;BME280;73077;49.898;16.450;2023-12-07T12:33:13;97374.00;;;21.03;38.75
83183;BME280;73077;49.898;16.450;2023-12-07T12:35:41;97372.50;;;21.00;38.72
83183;BME280;73077;49.898;16.450;2023-12-07T12:38:11;97384.03;;;20.99;39.00
83183;BME280;73077;49.898;16.450;2023-12-07T12:40:38;97375.50;;;20.97;38.79
83183;BME280;73077;49.898;16.450;2023-12-07T12:43:07;97368.75;;;20.95;38.79
83183;BME280;73077;49.898;16.450;2023-12-07T12:45:33;97373.56;;;20.91;38.88
83183;BME280;73077;49.898;16.450;2023-12-07T12:48:01;97372.25;;;20.87;39.10
83183;BME280;73077;49.898;16.450;2023-12-07T12:53:03;97372.94;;;20.81;39.11
83183;BME280;73077;49.898;16.450;2023-12-07T12:55:35;97368.19;;;20.77;39.29
83183;BME280;73077;49.898;16.450;2023-12-07T12:58:02;97371.16;;;20.74;39.17
83183;BME280;73077;49.898;16.450;2023-12-07T13:00:31;97366.25;;;20.71;39.19
83183;BME280;73077;49.898;16.450;2023-12-07T13:03:02;97373.50;;;20.69;39.34